sensor_id;sensor_type;location;lat;lon;timestamp;P1;durP1;ratioP1;P2;durP2;ratioP2
21128;SDS011;10722;51.910;8.352;2023-01-04T00:02:08;8.97;;;2.10;;
21128;SDS011;10722;51.910;8.352;2023-01-04T00:04:54;11.43;;;2.40;;
21128;SDS011;10722;51.910;8.352;2023-01-04T00:07:39;11.53;;;2.70;;
21128;SDS011;10722;51.910;8.352;2023-01-04T00:10:25;10.07;;;2.47;;
21128;SDS011;10722;51.910;8.352;2023-01-04T00:13:10;11.40;;;2.40;;
21128;SDS011;10722;51.910;8.352;2023-01-04T00:15:56;11.37;;;2.60;;
21128;SDS011;10722;51.910;8.352;2023-01-04T00:18:51;11.70;;;2.40;;
21128;SDS011;10722;51.910;8.352;2023-01-04T00:21:37;8.43;;;2.23;;
21128;SDS011;10722;51.910;8.352;2023-01-04T00:24:23;11.50;;;2.17;;
21128;SDS011;10722;51.910;8.352;2023-01-04T00:27:08;12.20;;;2.63;;
21128;SDS011;10722;51.910;8.352;2023-01-04T00:29:53;16.33;;;2.87;;
21128;SDS011;10722;51.910;8.352;2023-01-04T00:32:38;13.27;;;2.33;;
21128;SDS011;10722;51.910;8.352;2023-01-04T00:35:24;10.93;;;2.40;;
21128;SDS011;10722;51.910;8.352;2023-01-04T00:38:29;13.23;;;2.73;;
21128;SDS011;10722;51.910;8.352;2023-01-04T00:41:15;17.10;;;2.93;;
21128;SDS011;10722;51.910;8.352;2023-01-04T00:44:21;10.60;;;2.37;;
21128;SDS011;10722;51.910;8.352;2023-01-04T00:47:07;13.10;;;2.30;;
21128;SDS011;10722;51.910;8.352;2023-01-04T00:49:52;9.90;;;2.17;;
21128;SDS011;10722;51.910;8.352;2023-01-04T00:52:38;12.63;;;2.70;;
21128;SDS011;10722;51.910;8.352;2023-01-04T00:55:23;13.57;;;2.90;;
21128;SDS011;10722;51.910;8.352;2023-01-04T00:58:08;14.00;;;2.73;;
21128;SDS011;10722;51.910;8.352;2023-01-04T01:00:53;10.07;;;2.10;;
21128;SDS011;10722;51.910;8.352;2023-01-04T01:03:38;11.03;;;2.30;;
21128;SDS011;10722;51.910;8.352;2023-01-04T01:06:24;11.93;;;2.20;;
21128;SDS011;10722;51.910;8.352;2023-01-04T01:09:10;8.33;;;2.00;;
21128;SDS011;10722;51.910;8.352;2023-01-04T01:11:55;11.30;;;2.10;;
21128;SDS011;10722;51.910;8.352;2023-01-04T01:14:41;9.87;;;2.03;;
21128;SDS011;10722;51.910;8.352;2023-01-04T01:17:26;10.43;;;2.20;;
21128;SDS011;10722;51.910;8.352;2023-01-04T01:20:11;9.23;;;2.00;;
21128;SDS011;10722;51.910;8.352;2023-01-04T01:22:56;8.60;;;1.97;;
21128;SDS011;10722;51.910;8.352;2023-01-04T01:25:41;8.87;;;2.10;;
21128;SDS011;10722;51.910;8.352;2023-01-04T01:28:27;10.27;;;2.40;;
21128;SDS011;10722;51.910;8.352;2023-01-04T01:31:17;11.33;;;2.03;;
21128;SDS011;10722;51.910;8.352;2023-01-04T01:34:04;10.70;;;2.10;;
21128;SDS011;10722;51.910;8.352;2023-01-04T01:36:49;12.33;;;2.30;;
21128;SDS011;10722;51.910;8.352;2023-01-04T01:39:35;7.80;;;2.10;;
21128;SDS011;10722;51.910;8.352;2023-01-04T01:42:20;10.40;;;2.30;;
21128;SDS011;10722;51.910;8.352;2023-01-04T01:45:07;8.43;;;1.93;;
21128;SDS011;10722;51.910;8.352;2023-01-04T01:48:14;8.97;;;1.93;;
21128;SDS011;10722;51.910;8.352;2023-01-04T01:51:03;8.17;;;2.00;;
21128;SDS011;10722;51.910;8.352;2023-01-04T01:53:51;9.00;;;2.00;;
21128;SDS011;10722;51.910;8.352;2023-01-04T01:56:45;6.67;;;1.80;;
21128;SDS011;10722;51.910;8.352;2023-01-04T01:59:34;10.93;;;2.13;;
21128;SDS011;10722;51.910;8.352;2023-01-04T02:02:24;7.70;;;1.80;;
21128;SDS011;10722;51.910;8.352;2023-01-04T02:05:10;7.77;;;2.40;;
21128;SDS011;10722;51.910;8.352;2023-01-04T02:07:57;11.73;;;2.20;;
21128;SDS011;10722;51.910;8.352;2023-01-04T02:10:44;10.47;;;2.20;;
21128;SDS011;10722;51.910;8.352;2023-01-04T02:13:32;7.97;;;2.00;;
21128;SDS011;10722;51.910;8.352;2023-01-04T02:16:25;9.10;;;1.70;;
21128;SDS011;10722;51.910;8.352;2023-01-04T02:37:49;10.40;;;2.37;;
21128;SDS011;10722;51.910;8.352;2023-01-04T02:43:33;10.17;;;2.20;;
21128;SDS011;10722;51.910;8.352;2023-01-04T02:46:44;11.37;;;2.10;;
21128;SDS011;10722;51.910;8.352;2023-01-04T02:49:31;6.87;;;2.10;;
21128;SDS011;10722;51.910;8.352;2023-01-04T02:52:17;12.77;;;2.30;;
21128;SDS011;10722;51.910;8.352;2023-01-04T02:55:04;14.60;;;2.30;;
21128;SDS011;10722;51.910;8.352;2023-01-04T02:57:52;8.20;;;2.20;;
21128;SDS011;10722;51.910;8.352;2023-01-04T03:01:10;8.93;;;2.20;;
21128;SDS011;10722;51.910;8.352;2023-01-04T03:10:26;9.13;;;2.30;;
21128;SDS011;10722;51.910;8.352;2023-01-04T03:13:22;14.17;;;2.67;;
21128;SDS011;10722;51.910;8.352;2023-01-04T03:16:16;14.63;;;2.77;;
21128;SDS011;10722;51.910;8.352;2023-01-04T03:19:05;12.63;;;2.60;;
21128;SDS011;10722;51.910;8.352;2023-01-04T03:21:52;12.37;;;2.60;;
21128;SDS011;10722;51.910;8.352;2023-01-04T03:24:37;13.30;;;2.60;;
21128;SDS011;10722;51.910;8.352;2023-01-04T03:27:23;11.10;;;2.60;;
21128;SDS011;10722;51.910;8.352;2023-01-04T03:30:08;11.10;;;2.53;;
21128;SDS011;10722;51.910;8.352;2023-01-04T03:32:58;12.30;;;2.50;;
21128;SDS011;10722;51.910;8.352;2023-01-04T03:38:34;10.83;;;2.37;;
21128;SDS011;10722;51.910;8.352;2023-01-04T03:41:32;11.60;;;2.40;;
21128;SDS011;10722;51.910;8.352;2023-01-04T03:44:28;12.23;;;2.63;;
21128;SDS011;10722;51.910;8.352;2023-01-04T03:47:16;14.17;;;2.33;;
21128;SDS011;10722;51.910;8.352;2023-01-04T03:50:08;8.00;;;2.20;;
21128;SDS011;10722;51.910;8.352;2023-01-04T03:52:57;11.80;;;2.43;;
21128;SDS011;10722;51.910;8.352;2023-01-04T03:55:43;10.57;;;2.50;;
21128;SDS011;10722;51.910;8.352;2023-01-04T03:58:29;12.37;;;2.30;;
21128;SDS011;10722;51.910;8.352;2023-01-04T04:01:16;9.60;;;2.20;;
21128;SDS011;10722;51.910;8.352;2023-01-04T04:04:03;9.50;;;2.10;;
21128;SDS011;10722;51.910;8.352;2023-01-04T04:06:49;8.77;;;2.23;;
21128;SDS011;10722;51.910;8.352;2023-01-04T04:09:34;9.20;;;1.97;;
21128;SDS011;10722;51.910;8.352;2023-01-04T04:12:19;8.83;;;2.20;;
21128;SDS011;10722;51.910;8.352;2023-01-04T04:15:05;7.60;;;1.80;;
21128;SDS011;10722;51.910;8.352;2023-01-04T04:17:50;7.83;;;1.73;;
21128;SDS011;10722;51.910;8.352;2023-01-04T04:20:35;7.80;;;1.90;;
21128;SDS011;10722;51.910;8.352;2023-01-04T04:23:20;4.37;;;1.57;;
21128;SDS011;10722;51.910;8.352;2023-01-04T04:26:05;8.27;;;1.60;;
21128;SDS011;10722;51.910;8.352;2023-01-04T04:28:51;6.07;;;1.47;;
21128;SDS011;10722;51.910;8.352;2023-01-04T04:31:36;7.40;;;1.40;;
21128;SDS011;10722;51.910;8.352;2023-01-04T04:34:22;5.37;;;1.47;;
21128;SDS011;10722;51.910;8.352;2023-01-04T04:37:07;4.53;;;1.40;;
21128;SDS011;10722;51.910;8.352;2023-01-04T04:39:52;4.00;;;1.33;;
21128;SDS011;10722;51.910;8.352;2023-01-04T04:42:37;7.23;;;1.23;;
21128;SDS011;10722;51.910;8.352;2023-01-04T04:45:22;5.80;;;1.33;;
21128;SDS011;10722;51.910;8.352;2023-01-04T04:48:07;5.53;;;1.40;;
21128;SDS011;10722;51.910;8.352;2023-01-04T04:50:53;4.67;;;1.30;;
21128;SDS011;10722;51.910;8.352;2023-01-04T04:53:38;4.67;;;1.23;;
21128;SDS011;10722;51.910;8.352;2023-01-04T04:56:23;6.40;;;1.10;;
21128;SDS011;10722;51.910;8.352;2023-01-04T04:59:09;6.13;;;1.40;;
21128;SDS011;10722;51.910;8.352;2023-01-04T05:01:54;2.87;;;1.00;;
21128;SDS011;10722;51.910;8.352;2023-01-04T05:04:39;4.40;;;1.30;;
21128;SDS011;10722;51.910;8.352;2023-01-04T05:07:24;2.57;;;1.03;;
21128;SDS011;10722;51.910;8.352;2023-01-04T05:10:10;4.97;;;1.17;;
21128;SDS011;10722;51.910;8.352;2023-01-04T05:12:55;5.73;;;1.40;;
21128;SDS011;10722;51.910;8.352;2023-01-04T05:15:43;4.07;;;1.00;;
21128;SDS011;10722;51.910;8.352;2023-01-04T05:18:30;5.03;;;1.30;;
21128;SDS011;10722;51.910;8.352;2023-01-04T05:21:15;4.70;;;1.23;;
21128;SDS011;10722;51.910;8.352;2023-01-04T05:24:04;4.20;;;1.10;;
21128;SDS011;10722;51.910;8.352;2023-01-04T05:26:50;3.20;;;1.10;;
21128;SDS011;10722;51.910;8.352;2023-01-04T05:29:35;3.77;;;1.13;;
21128;SDS011;10722;51.910;8.352;2023-01-04T05:32:20;4.27;;;1.23;;
21128;SDS011;10722;51.910;8.352;2023-01-04T05:35:06;3.87;;;1.40;;
21128;SDS011;10722;51.910;8.352;2023-01-04T05:37:51;1.83;;;0.90;;
21128;SDS011;10722;51.910;8.352;2023-01-04T05:40:36;3.23;;;1.20;;
21128;SDS011;10722;51.910;8.352;2023-01-04T05:43:22;2.80;;;1.00;;
21128;SDS011;10722;51.910;8.352;2023-01-04T05:46:07;3.00;;;1.10;;
21128;SDS011;10722;51.910;8.352;2023-01-04T05:48:53;2.43;;;1.10;;
21128;SDS011;10722;51.910;8.352;2023-01-04T05:51:38;2.87;;;1.10;;
21128;SDS011;10722;51.910;8.352;2023-01-04T05:54:23;4.20;;;1.00;;
21128;SDS011;10722;51.910;8.352;2023-01-04T05:57:08;3.97;;;1.20;;
21128;SDS011;10722;51.910;8.352;2023-01-04T05:59:54;3.70;;;1.30;;
21128;SDS011;10722;51.910;8.352;2023-01-04T06:02:39;4.33;;;1.10;;
21128;SDS011;10722;51.910;8.352;2023-01-04T06:05:25;7.40;;;1.57;;
21128;SDS011;10722;51.910;8.352;2023-01-04T06:08:10;2.10;;;1.10;;
21128;SDS011;10722;51.910;8.352;2023-01-04T06:10:56;3.27;;;1.30;;
21128;SDS011;10722;51.910;8.352;2023-01-04T06:13:41;3.60;;;1.17;;
21128;SDS011;10722;51.910;8.352;2023-01-04T06:16:25;6.13;;;1.27;;
21128;SDS011;10722;51.910;8.352;2023-01-04T06:19:11;2.67;;;1.20;;
21128;SDS011;10722;51.910;8.352;2023-01-04T06:21:56;2.57;;;1.10;;
21128;SDS011;10722;51.910;8.352;2023-01-04T06:24:41;2.63;;;1.10;;
21128;SDS011;10722;51.910;8.352;2023-01-04T06:27:26;4.00;;;1.27;;
21128;SDS011;10722;51.910;8.352;2023-01-04T06:30:11;3.73;;;1.10;;
21128;SDS011;10722;51.910;8.352;2023-01-04T06:32:57;2.57;;;0.90;;
21128;SDS011;10722;51.910;8.352;2023-01-04T06:35:42;2.63;;;1.30;;
21128;SDS011;10722;51.910;8.352;2023-01-04T06:38:27;3.07;;;1.27;;
21128;SDS011;10722;51.910;8.352;2023-01-04T06:41:12;3.97;;;1.30;;
21128;SDS011;10722;51.910;8.352;2023-01-04T06:43:57;1.97;;;1.20;;
21128;SDS011;10722;51.910;8.352;2023-01-04T06:46:43;4.57;;;1.30;;
21128;SDS011;10722;51.910;8.352;2023-01-04T06:49:28;3.77;;;1.20;;
21128;SDS011;10722;51.910;8.352;2023-01-04T06:52:14;2.03;;;1.13;;
21128;SDS011;10722;51.910;8.352;2023-01-04T06:54:59;3.33;;;1.30;;
21128;SDS011;10722;51.910;8.352;2023-01-04T06:57:44;5.87;;;1.60;;
21128;SDS011;10722;51.910;8.352;2023-01-04T07:00:29;4.63;;;1.70;;
21128;SDS011;10722;51.910;8.352;2023-01-04T07:03:14;4.23;;;1.70;;
21128;SDS011;10722;51.910;8.352;2023-01-04T07:06:03;6.00;;;1.60;;
21128;SDS011;10722;51.910;8.352;2023-01-04T07:08:50;4.70;;;1.60;;
21128;SDS011;10722;51.910;8.352;2023-01-04T07:11:35;4.10;;;1.60;;
21128;SDS011;10722;51.910;8.352;2023-01-04T07:14:20;3.40;;;1.43;;
21128;SDS011;10722;51.910;8.352;2023-01-04T07:17:05;3.47;;;1.30;;
21128;SDS011;10722;51.910;8.352;2023-01-04T07:19:50;6.73;;;1.70;;
21128;SDS011;10722;51.910;8.352;2023-01-04T07:22:35;5.00;;;1.43;;
21128;SDS011;10722;51.910;8.352;2023-01-04T07:25:20;2.57;;;1.43;;
21128;SDS011;10722;51.910;8.352;2023-01-04T07:28:06;3.10;;;1.53;;
21128;SDS011;10722;51.910;8.352;2023-01-04T07:30:52;4.03;;;1.50;;
21128;SDS011;10722;51.910;8.352;2023-01-04T07:33:37;3.87;;;1.90;;
21128;SDS011;10722;51.910;8.352;2023-01-04T07:36:23;3.60;;;1.80;;
21128;SDS011;10722;51.910;8.352;2023-01-04T07:39:08;6.43;;;1.60;;
21128;SDS011;10722;51.910;8.352;2023-01-04T07:41:54;5.93;;;1.80;;
21128;SDS011;10722;51.910;8.352;2023-01-04T07:44:39;4.50;;;2.10;;
21128;SDS011;10722;51.910;8.352;2023-01-04T07:47:26;3.00;;;1.50;;
21128;SDS011;10722;51.910;8.352;2023-01-04T07:50:12;5.37;;;1.90;;
21128;SDS011;10722;51.910;8.352;2023-01-04T07:52:59;3.17;;;1.40;;
21128;SDS011;10722;51.910;8.352;2023-01-04T07:55:45;4.00;;;1.30;;
21128;SDS011;10722;51.910;8.352;2023-01-04T07:58:31;2.90;;;1.30;;
21128;SDS011;10722;51.910;8.352;2023-01-04T08:01:17;4.73;;;1.30;;
21128;SDS011;10722;51.910;8.352;2023-01-04T08:04:04;4.13;;;1.43;;
21128;SDS011;10722;51.910;8.352;2023-01-04T08:06:50;4.70;;;1.40;;
21128;SDS011;10722;51.910;8.352;2023-01-04T08:09:36;3.83;;;1.20;;
21128;SDS011;10722;51.910;8.352;2023-01-04T08:12:21;2.93;;;1.20;;
21128;SDS011;10722;51.910;8.352;2023-01-04T08:15:06;4.00;;;1.30;;
21128;SDS011;10722;51.910;8.352;2023-01-04T08:17:51;3.00;;;1.10;;
21128;SDS011;10722;51.910;8.352;2023-01-04T08:20:36;3.90;;;1.50;;
21128;SDS011;10722;51.910;8.352;2023-01-04T08:23:21;2.63;;;1.30;;
21128;SDS011;10722;51.910;8.352;2023-01-04T08:26:07;5.47;;;1.30;;
21128;SDS011;10722;51.910;8.352;2023-01-04T08:28:55;3.27;;;0.97;;
21128;SDS011;10722;51.910;8.352;2023-01-04T08:31:41;2.87;;;1.40;;
21128;SDS011;10722;51.910;8.352;2023-01-04T08:34:26;5.43;;;1.50;;
21128;SDS011;10722;51.910;8.352;2023-01-04T08:37:12;3.10;;;1.00;;
21128;SDS011;10722;51.910;8.352;2023-01-04T08:39:57;2.30;;;1.30;;
21128;SDS011;10722;51.910;8.352;2023-01-04T08:42:42;2.60;;;1.30;;
21128;SDS011;10722;51.910;8.352;2023-01-04T08:45:28;1.57;;;1.20;;
21128;SDS011;10722;51.910;8.352;2023-01-04T08:48:13;2.87;;;1.10;;
21128;SDS011;10722;51.910;8.352;2023-01-04T08:51:05;6.10;;;1.30;;
21128;SDS011;10722;51.910;8.352;2023-01-04T08:53:52;1.73;;;1.07;;
21128;SDS011;10722;51.910;8.352;2023-01-04T08:56:37;2.37;;;1.40;;
21128;SDS011;10722;51.910;8.352;2023-01-04T08:59:23;1.40;;;1.00;;
21128;SDS011;10722;51.910;8.352;2023-01-04T09:02:24;2.87;;;1.10;;
21128;SDS011;10722;51.910;8.352;2023-01-04T09:05:11;1.47;;;1.20;;
21128;SDS011;10722;51.910;8.352;2023-01-04T09:08:07;2.37;;;1.03;;
21128;SDS011;10722;51.910;8.352;2023-01-04T09:10:51;2.97;;;1.07;;
21128;SDS011;10722;51.910;8.352;2023-01-04T09:13:36;2.80;;;1.27;;
21128;SDS011;10722;51.910;8.352;2023-01-04T09:16:21;2.47;;;1.27;;
21128;SDS011;10722;51.910;8.352;2023-01-04T09:19:07;3.87;;;1.20;;
21128;SDS011;10722;51.910;8.352;2023-01-04T09:21:52;3.03;;;1.00;;
21128;SDS011;10722;51.910;8.352;2023-01-04T09:24:38;2.87;;;1.10;;
21128;SDS011;10722;51.910;8.352;2023-01-04T09:27:23;3.73;;;1.10;;
21128;SDS011;10722;51.910;8.352;2023-01-04T09:30:08;1.77;;;1.00;;
21128;SDS011;10722;51.910;8.352;2023-01-04T09:32:53;1.70;;;1.00;;
21128;SDS011;10722;51.910;8.352;2023-01-04T09:35:39;2.17;;;1.30;;
21128;SDS011;10722;51.910;8.352;2023-01-04T09:38:24;2.70;;;1.50;;
21128;SDS011;10722;51.910;8.352;2023-01-04T09:46:59;3.23;;;1.40;;
21128;SDS011;10722;51.910;8.352;2023-01-04T09:49:57;2.07;;;1.13;;
21128;SDS011;10722;51.910;8.352;2023-01-04T09:55:43;4.77;;;1.47;;
21128;SDS011;10722;51.910;8.352;2023-01-04T09:58:31;3.47;;;1.60;;
21128;SDS011;10722;51.910;8.352;2023-01-04T10:01:26;3.67;;;1.33;;
21128;SDS011;10722;51.910;8.352;2023-01-04T10:05:08;4.30;;;1.90;;
21128;SDS011;10722;51.910;8.352;2023-01-04T10:07:34;3.60;;;1.43;;
21128;SDS011;10722;51.910;8.352;2023-01-04T10:10:21;3.63;;;1.67;;
21128;SDS011;10722;51.910;8.352;2023-01-04T10:26:49;4.00;;;1.80;;
21128;SDS011;10722;51.910;8.352;2023-01-04T10:29:42;4.50;;;1.80;;
21128;SDS011;10722;51.910;8.352;2023-01-04T10:32:40;2.47;;;1.60;;
21128;SDS011;10722;51.910;8.352;2023-01-04T10:35:29;3.10;;;1.80;;
21128;SDS011;10722;51.910;8.352;2023-01-04T10:38:19;3.90;;;1.70;;
21128;SDS011;10722;51.910;8.352;2023-01-04T10:41:08;3.43;;;1.67;;
21128;SDS011;10722;51.910;8.352;2023-01-04T10:47:06;5.33;;;1.57;;
21128;SDS011;10722;51.910;8.352;2023-01-04T10:49:58;2.33;;;1.50;;
21128;SDS011;10722;51.910;8.352;2023-01-04T10:53:00;3.77;;;1.83;;
21128;SDS011;10722;51.910;8.352;2023-01-04T10:55:55;5.20;;;1.80;;
21128;SDS011;10722;51.910;8.352;2023-01-04T10:59:13;4.53;;;1.90;;
21128;SDS011;10722;51.910;8.352;2023-01-04T11:05:06;6.80;;;2.03;;
21128;SDS011;10722;51.910;8.352;2023-01-04T11:07:56;7.13;;;2.40;;
21128;SDS011;10722;51.910;8.352;2023-01-04T11:10:55;3.97;;;1.77;;
21128;SDS011;10722;51.910;8.352;2023-01-04T11:13:43;4.77;;;2.00;;
21128;SDS011;10722;51.910;8.352;2023-01-04T11:16:29;5.67;;;2.43;;
21128;SDS011;10722;51.910;8.352;2023-01-04T11:19:14;4.53;;;2.20;;
21128;SDS011;10722;51.910;8.352;2023-01-04T11:22:04;4.90;;;2.23;;
21128;SDS011;10722;51.910;8.352;2023-01-04T11:24:58;5.00;;;2.10;;
21128;SDS011;10722;51.910;8.352;2023-01-04T11:31:28;6.50;;;2.30;;
21128;SDS011;10722;51.910;8.352;2023-01-04T11:34:16;4.30;;;2.00;;
21128;SDS011;10722;51.910;8.352;2023-01-04T11:37:01;5.00;;;2.40;;
21128;SDS011;10722;51.910;8.352;2023-01-04T11:39:46;5.80;;;2.33;;
21128;SDS011;10722;51.910;8.352;2023-01-04T11:42:31;7.87;;;2.60;;
21128;SDS011;10722;51.910;8.352;2023-01-04T11:48:07;8.03;;;2.77;;
21128;SDS011;10722;51.910;8.352;2023-01-04T11:50:59;6.57;;;3.10;;
21128;SDS011;10722;51.910;8.352;2023-01-04T11:53:44;6.20;;;2.67;;
21128;SDS011;10722;51.910;8.352;2023-01-04T11:57:26;8.17;;;3.00;;
21128;SDS011;10722;51.910;8.352;2023-01-04T12:00:09;6.07;;;2.60;;
21128;SDS011;10722;51.910;8.352;2023-01-04T12:05:58;6.30;;;2.63;;
21128;SDS011;10722;51.910;8.352;2023-01-04T12:08:43;7.43;;;2.60;;
21128;SDS011;10722;51.910;8.352;2023-01-04T12:11:30;4.20;;;2.20;;
21128;SDS011;10722;51.910;8.352;2023-01-04T12:17:10;5.87;;;2.20;;
21128;SDS011;10722;51.910;8.352;2023-01-04T12:20:00;5.63;;;2.33;;
21128;SDS011;10722;51.910;8.352;2023-01-04T12:22:47;4.53;;;1.93;;
21128;SDS011;10722;51.910;8.352;2023-01-04T12:28:43;6.30;;;2.50;;
21128;SDS011;10722;51.910;8.352;2023-01-04T12:31:31;6.53;;;2.60;;
21128;SDS011;10722;51.910;8.352;2023-01-04T12:37:05;6.37;;;2.47;;
21128;SDS011;10722;51.910;8.352;2023-01-04T12:39:50;7.67;;;2.50;;
21128;SDS011;10722;51.910;8.352;2023-01-04T12:42:35;4.83;;;2.17;;
21128;SDS011;10722;51.910;8.352;2023-01-04T12:45:21;3.17;;;1.97;;
21128;SDS011;10722;51.910;8.352;2023-01-04T12:51:18;4.33;;;2.30;;
21128;SDS011;10722;51.910;8.352;2023-01-04T12:54:25;5.97;;;2.13;;
21128;SDS011;10722;51.910;8.352;2023-01-04T12:57:31;7.43;;;2.60;;
21128;SDS011;10722;51.910;8.352;2023-01-04T13:01:06;6.80;;;2.80;;
21128;SDS011;10722;51.910;8.352;2023-01-04T13:03:41;4.73;;;1.90;;
21128;SDS011;10722;51.910;8.352;2023-01-04T13:06:32;4.30;;;2.20;;
21128;SDS011;10722;51.910;8.352;2023-01-04T13:09:23;5.63;;;2.37;;
21128;SDS011;10722;51.910;8.352;2023-01-04T13:15:19;5.30;;;2.00;;
21128;SDS011;10722;51.910;8.352;2023-01-04T13:18:14;6.70;;;2.40;;
21128;SDS011;10722;51.910;8.352;2023-01-04T13:21:09;7.10;;;2.20;;
21128;SDS011;10722;51.910;8.352;2023-01-04T13:27:14;4.47;;;1.90;;
21128;SDS011;10722;51.910;8.352;2023-01-04T13:30:02;4.40;;;1.90;;
21128;SDS011;10722;51.910;8.352;2023-01-04T13:32:47;6.20;;;2.10;;
21128;SDS011;10722;51.910;8.352;2023-01-04T13:36:10;4.87;;;2.10;;
21128;SDS011;10722;51.910;8.352;2023-01-04T13:38:55;5.10;;;1.93;;
21128;SDS011;10722;51.910;8.352;2023-01-04T13:41:42;4.63;;;2.30;;
21128;SDS011;10722;51.910;8.352;2023-01-04T13:47:37;6.17;;;2.33;;
21128;SDS011;10722;51.910;8.352;2023-01-04T13:53:29;7.77;;;2.70;;
21128;SDS011;10722;51.910;8.352;2023-01-04T13:56:20;5.63;;;2.53;;
21128;SDS011;10722;51.910;8.352;2023-01-04T13:59:12;6.33;;;2.37;;
21128;SDS011;10722;51.910;8.352;2023-01-04T14:01:57;5.17;;;2.70;;
21128;SDS011;10722;51.910;8.352;2023-01-04T14:04:43;6.57;;;3.17;;
21128;SDS011;10722;51.910;8.352;2023-01-04T14:07:29;6.00;;;2.87;;
21128;SDS011;10722;51.910;8.352;2023-01-04T14:10:15;5.53;;;2.80;;
21128;SDS011;10722;51.910;8.352;2023-01-04T14:13:02;4.63;;;2.20;;
21128;SDS011;10722;51.910;8.352;2023-01-04T14:18:57;6.93;;;2.60;;
21128;SDS011;10722;51.910;8.352;2023-01-04T14:21:41;5.47;;;3.00;;
21128;SDS011;10722;51.910;8.352;2023-01-04T14:24:30;8.37;;;3.30;;
21128;SDS011;10722;51.910;8.352;2023-01-04T14:27:38;8.57;;;3.35;;
21128;SDS011;10722;51.910;8.352;2023-01-04T14:30:24;9.60;;;3.47;;
21128;SDS011;10722;51.910;8.352;2023-01-04T14:33:14;6.67;;;3.17;;
21128;SDS011;10722;51.910;8.352;2023-01-04T14:36:03;7.63;;;3.20;;
21128;SDS011;10722;51.910;8.352;2023-01-04T14:41:39;6.30;;;2.73;;
21128;SDS011;10722;51.910;8.352;2023-01-04T14:44:27;8.30;;;3.33;;
21128;SDS011;10722;51.910;8.352;2023-01-04T14:47:13;7.90;;;3.40;;
21128;SDS011;10722;51.910;8.352;2023-01-04T14:49:58;10.83;;;3.70;;
21128;SDS011;10722;51.910;8.352;2023-01-04T14:52:51;9.40;;;3.53;;
21128;SDS011;10722;51.910;8.352;2023-01-04T14:55:37;9.57;;;3.40;;
21128;SDS011;10722;51.910;8.352;2023-01-04T14:58:23;7.00;;;3.00;;
21128;SDS011;10722;51.910;8.352;2023-01-04T15:01:08;9.68;;;3.38;;
21128;SDS011;10722;51.910;8.352;2023-01-04T15:03:53;8.97;;;3.13;;
21128;SDS011;10722;51.910;8.352;2023-01-04T15:06:45;6.97;;;3.07;;
21128;SDS011;10722;51.910;8.352;2023-01-04T15:09:32;7.23;;;2.93;;
21128;SDS011;10722;51.910;8.352;2023-01-04T15:12:17;6.40;;;3.03;;
21128;SDS011;10722;51.910;8.352;2023-01-04T15:15:02;8.13;;;2.90;;
21128;SDS011;10722;51.910;8.352;2023-01-04T15:17:47;6.47;;;2.60;;
21128;SDS011;10722;51.910;8.352;2023-01-04T15:20:33;7.63;;;2.77;;
21128;SDS011;10722;51.910;8.352;2023-01-04T15:23:19;9.83;;;2.67;;
21128;SDS011;10722;51.910;8.352;2023-01-04T15:26:08;10.33;;;2.97;;
21128;SDS011;10722;51.910;8.352;2023-01-04T15:28:54;9.93;;;2.97;;
21128;SDS011;10722;51.910;8.352;2023-01-04T15:31:39;5.07;;;2.20;;
21128;SDS011;10722;51.910;8.352;2023-01-04T15:34:24;5.87;;;2.67;;
21128;SDS011;10722;51.910;8.352;2023-01-04T15:37:10;7.70;;;3.10;;
21128;SDS011;10722;51.910;8.352;2023-01-04T15:39:54;6.33;;;2.93;;
21128;SDS011;10722;51.910;8.352;2023-01-04T15:42:46;8.37;;;3.17;;
21128;SDS011;10722;51.910;8.352;2023-01-04T15:45:35;8.97;;;4.00;;
21128;SDS011;10722;51.910;8.352;2023-01-04T15:48:21;8.73;;;3.97;;
21128;SDS011;10722;51.910;8.352;2023-01-04T15:51:08;8.43;;;4.17;;
21128;SDS011;10722;51.910;8.352;2023-01-04T15:53:53;10.33;;;3.80;;
21128;SDS011;10722;51.910;8.352;2023-01-04T15:56:38;9.80;;;4.10;;
21128;SDS011;10722;51.910;8.352;2023-01-04T15:59:23;8.73;;;3.83;;
21128;SDS011;10722;51.910;8.352;2023-01-04T16:02:10;9.03;;;4.00;;
21128;SDS011;10722;51.910;8.352;2023-01-04T16:04:55;10.30;;;3.77;;
21128;SDS011;10722;51.910;8.352;2023-01-04T16:07:40;10.53;;;4.10;;
21128;SDS011;10722;51.910;8.352;2023-01-04T16:10:26;10.40;;;4.07;;
21128;SDS011;10722;51.910;8.352;2023-01-04T16:13:11;11.68;;;3.97;;
21128;SDS011;10722;51.910;8.352;2023-01-04T16:15:58;10.50;;;3.90;;
21128;SDS011;10722;51.910;8.352;2023-01-04T16:18:45;12.73;;;4.23;;
21128;SDS011;10722;51.910;8.352;2023-01-04T16:21:31;11.57;;;4.57;;
21128;SDS011;10722;51.910;8.352;2023-01-04T16:24:16;12.37;;;4.60;;
21128;SDS011;10722;51.910;8.352;2023-01-04T16:27:21;12.90;;;4.40;;
21128;SDS011;10722;51.910;8.352;2023-01-04T16:30:10;13.07;;;4.80;;
21128;SDS011;10722;51.910;8.352;2023-01-04T16:32:56;11.67;;;3.93;;
21128;SDS011;10722;51.910;8.352;2023-01-04T16:35:41;12.97;;;4.30;;
21128;SDS011;10722;51.910;8.352;2023-01-04T16:38:26;14.17;;;4.10;;
21128;SDS011;10722;51.910;8.352;2023-01-04T16:41:16;13.80;;;4.53;;
21128;SDS011;10722;51.910;8.352;2023-01-04T16:44:03;12.65;;;3.78;;
21128;SDS011;10722;51.910;8.352;2023-01-04T16:46:49;11.25;;;3.50;;
21128;SDS011;10722;51.910;8.352;2023-01-04T16:49:34;10.38;;;3.38;;
21128;SDS011;10722;51.910;8.352;2023-01-04T16:52:20;12.50;;;3.40;;
21128;SDS011;10722;51.910;8.352;2023-01-04T16:55:05;10.30;;;3.50;;
21128;SDS011;10722;51.910;8.352;2023-01-04T16:57:51;10.90;;;3.58;;
21128;SDS011;10722;51.910;8.352;2023-01-04T17:00:37;10.80;;;3.30;;
21128;SDS011;10722;51.910;8.352;2023-01-04T17:03:24;14.35;;;3.63;;
21128;SDS011;10722;51.910;8.352;2023-01-04T17:06:14;13.00;;;3.73;;
21128;SDS011;10722;51.910;8.352;2023-01-04T17:09:02;12.67;;;3.80;;
21128;SDS011;10722;51.910;8.352;2023-01-04T17:11:47;14.38;;;3.60;;
21128;SDS011;10722;51.910;8.352;2023-01-04T17:14:52;13.73;;;4.10;;
21128;SDS011;10722;51.910;8.352;2023-01-04T17:17:58;13.37;;;4.27;;
21128;SDS011;10722;51.910;8.352;2023-01-04T17:20:43;13.98;;;4.15;;
21128;SDS011;10722;51.910;8.352;2023-01-04T17:23:36;13.68;;;4.35;;
21128;SDS011;10722;51.910;8.352;2023-01-04T17:26:27;15.18;;;4.70;;
21128;SDS011;10722;51.910;8.352;2023-01-04T17:29:14;15.07;;;4.50;;
21128;SDS011;10722;51.910;8.352;2023-01-04T17:31:59;14.07;;;4.70;;
21128;SDS011;10722;51.910;8.352;2023-01-04T17:34:45;17.30;;;5.33;;
21128;SDS011;10722;51.910;8.352;2023-01-04T17:37:33;17.40;;;5.53;;
21128;SDS011;10722;51.910;8.352;2023-01-04T17:40:18;16.77;;;5.90;;
21128;SDS011;10722;51.910;8.352;2023-01-04T17:43:07;16.42;;;5.70;;
21128;SDS011;10722;51.910;8.352;2023-01-04T17:45:53;15.98;;;5.47;;
21128;SDS011;10722;51.910;8.352;2023-01-04T17:48:38;15.65;;;5.35;;
21128;SDS011;10722;51.910;8.352;2023-01-04T17:51:24;20.08;;;6.40;;
21128;SDS011;10722;51.910;8.352;2023-01-04T17:54:10;17.93;;;5.47;;
21128;SDS011;10722;51.910;8.352;2023-01-04T17:56:55;16.27;;;5.35;;
21128;SDS011;10722;51.910;8.352;2023-01-04T17:59:41;16.08;;;5.50;;
21128;SDS011;10722;51.910;8.352;2023-01-04T18:02:26;18.33;;;5.97;;
21128;SDS011;10722;51.910;8.352;2023-01-04T18:05:11;18.58;;;5.57;;
21128;SDS011;10722;51.910;8.352;2023-01-04T18:07:57;20.80;;;5.75;;
21128;SDS011;10722;51.910;8.352;2023-01-04T18:10:43;19.30;;;5.27;;
21128;SDS011;10722;51.910;8.352;2023-01-04T18:13:48;18.50;;;5.17;;
21128;SDS011;10722;51.910;8.352;2023-01-04T18:16:34;18.13;;;5.30;;
21128;SDS011;10722;51.910;8.352;2023-01-04T18:19:20;19.40;;;4.97;;
21128;SDS011;10722;51.910;8.352;2023-01-04T18:22:09;17.52;;;5.30;;
21128;SDS011;10722;51.910;8.352;2023-01-04T18:24:55;18.80;;;5.07;;
21128;SDS011;10722;51.910;8.352;2023-01-04T18:27:40;21.25;;;5.45;;